Time;durP1;ratioP1;P1;durP2;ratioP2;P2;SDS_P1;SDS_P2;PMS_P1;PMS_P2;Temp;Humidity;BMP_temperature;BMP_pressure;BME280_temperature;BME280_humidity;BME280_pressure;Samples;Min_cycle;Max_cycle;Signal;HPM_P1;HPM_P2
2024/03/18 00:00:14;;;;;;;1.80;1.40;;;22.60;54.50;;;;;;5030255;28;20410;-70
2024/03/18 00:02:40;;;;;;;2.23;1.27;;;22.60;54.50;;;;;;5030230;28;20409;-70
2024/03/18 00:05:08;;;;;;;2.40;1.60;;;22.60;54.50;;;;;;5029133;28;20442;-70
2024/03/18 00:07:34;;;;;;;1.83;1.53;;;22.60;54.50;;;;;;5029949;28;20454;-70
2024/03/18 00:09:59;;;;;;;1.80;1.50;;;22.60;54.50;;;;;;5030254;28;20490;-71
2024/03/18 00:12:25;;;;;;;2.53;1.40;;;22.60;54.50;;;;;;5029027;28;20508;-70
2024/03/18 00:14:50;;;;;;;3.03;1.40;;;22.60;54.50;;;;;;5012042;28;20199;-70
2024/03/18 00:17:16;;;;;;;1.87;1.50;;;22.60;54.60;;;;;;5029623;28;20631;-71
2024/03/18 00:19:42;;;;;;;1.97;1.60;;;22.60;54.50;;;;;;5028511;28;20198;-71
2024/03/18 00:22:07;;;;;;;4.30;1.57;;;22.60;54.50;;;;;;5011888;28;20529;-70
2024/03/18 00:24:33;;;;;;;1.90;1.57;;;22.50;54.40;;;;;;5029780;28;20188;-70
2024/03/18 00:26:59;;;;;;;2.37;1.40;;;22.50;54.50;;;;;;5029932;28;20176;-70
2024/03/18 00:29:25;;;;;;;3.60;1.60;;;22.60;54.60;;;;;;5012093;28;20213;-70
2024/03/18 00:31:51;;;;;;;2.10;1.67;;;22.50;54.50;;;;;;5029842;28;20782;-71
2024/03/18 00:34:17;;;;;;;1.87;1.23;;;22.50;54.50;;;;;;5012021;28;20200;-70
2024/03/18 00:36:44;;;;;;;3.50;1.77;;;22.50;54.50;;;;;;5012243;28;20444;-71
2024/03/18 00:39:09;;;;;;;1.37;1.27;;;22.50;54.50;;;;;;5029895;28;20221;-70
2024/03/18 00:41:47;;;;;;;2.30;1.63;;;22.50;54.60;;;;;;5012167;28;20430;-71
2024/03/18 00:44:23;;;;;;;2.10;1.50;;;22.50;54.50;;;;;;5011803;28;20211;-70
2024/03/18 00:46:49;;;;;;;1.90;1.70;;;22.50;54.60;;;;;;5029738;28;20881;-70
2024/03/18 00:49:15;;;;;;;2.33;1.57;;;22.50;54.60;;;;;;5011919;28;20512;-70
2024/03/18 00:51:41;;;;;;;1.73;1.47;;;22.50;54.60;;;;;;5011852;28;20912;-70
2024/03/18 00:54:09;;;;;;;1.57;1.30;;;22.50;54.60;;;;;;5029825;28;20552;-70
2024/03/18 00:56:35;;;;;;;2.27;1.43;;;22.50;54.60;;;;;;5029746;28;20981;-70
2024/03/18 00:59:01;;;;;;;1.40;1.13;;;22.50;54.60;;;;;;4995479;28;20422;-70
2024/03/18 01:01:30;;;;;;;2.00;1.47;;;22.50;54.60;;;;;;5029616;28;20418;-71
2024/03/18 01:03:56;;;;;;;2.50;1.77;;;22.50;54.60;;;;;;4996037;28;20262;-70
2024/03/18 01:06:22;;;;;;;4.03;1.30;;;22.50;54.60;;;;;;5030185;28;20411;-70
2024/03/18 01:08:47;;;;;;;1.47;1.20;;;22.50;54.60;;;;;;5029812;28;20204;-70
2024/03/18 01:11:13;;;;;;;3.87;1.70;;;22.50;54.60;;;;;;5011791;28;20226;-70
2024/03/18 01:13:40;;;;;;;1.80;1.43;;;22.50;54.70;;;;;;5011842;28;20164;-69
2024/03/18 01:16:07;;;;;;;1.90;1.30;;;22.50;54.70;;;;;;5012708;28;20215;-70
2024/03/18 01:18:33;;;;;;;1.93;1.83;;;22.50;54.70;;;;;;5015221;28;20414;-70
2024/03/18 01:20:59;;;;;;;1.47;1.37;;;22.50;54.70;;;;;;4998930;28;20429;-70
2024/03/18 01:23:24;;;;;;;1.93;1.53;;;22.50;54.70;;;;;;5033002;28;20225;-70
2024/03/18 01:25:50;;;;;;;1.80;1.20;;;22.50;54.70;;;;;;5032989;28;20199;-71
2024/03/18 01:28:15;;;;;;;1.60;1.40;;;22.50;54.70;;;;;;5014996;28;20210;-70
2024/03/18 01:30:41;;;;;;;2.30;1.67;;;22.50;54.70;;;;;;5015351;28;20274;-70
2024/03/18 01:33:07;;;;;;;1.87;1.40;;;22.50;54.70;;;;;;5032938;28;20168;-70
2024/03/18 01:35:33;;;;;;;1.80;1.43;;;22.50;54.70;;;;;;5014810;28;20203;-70
2024/03/18 01:38:05;;;;;;;1.77;1.20;;;22.50;54.80;;;;;;5015018;28;20425;-70
2024/03/18 01:40:30;;;;;;;1.97;1.50;;;22.50;54.70;;;;;;5014887;28;20168;-70
2024/03/18 01:42:56;;;;;;;1.53;1.13;;;22.40;54.60;;;;;;5032795;28;20425;-70
2024/03/18 01:45:23;;;;;;;2.00;1.50;;;22.40;54.70;;;;;;5014560;28;20213;-70
2024/03/18 01:47:51;;;;;;;1.60;1.37;;;22.50;54.80;;;;;;5014768;28;20265;-70
2024/03/18 01:50:17;;;;;;;1.93;1.30;;;22.40;54.70;;;;;;5015213;28;20414;-70
2024/03/18 01:52:44;;;;;;;1.73;1.20;;;22.40;54.70;;;;;;5014614;28;20429;-70
2024/03/18 01:55:11;;;;;;;1.70;1.50;;;22.40;54.70;;;;;;5032386;28;20473;-70
2024/03/18 01:57:37;;;;;;;1.60;1.33;;;22.40;54.70;;;;;;5014786;28;20464;-70
2024/03/18 02:00:05;;;;;;;2.30;1.60;;;22.40;54.70;;;;;;5014455;28;20425;-70
2024/03/18 02:02:31;;;;;;;1.63;1.47;;;22.40;54.70;;;;;;4998351;28;20414;-70
2024/03/18 02:04:57;;;;;;;1.67;1.30;;;22.40;54.70;;;;;;5032205;28;20924;-70
2024/03/18 02:07:27;;;;;;;2.40;1.50;;;22.40;54.70;;;;;;5014261;28;20418;-70
2024/03/18 02:09:53;;;;;;;1.80;1.20;;;22.40;54.70;;;;;;5032383;28;20187;-70
2024/03/18 02:12:19;;;;;;;2.10;1.40;;;22.40;54.80;;;;;;4997953;28;20979;-70
2024/03/18 02:14:51;;;;;;;2.90;1.50;;;22.40;54.70;;;;;;5014101;28;20282;-71
2024/03/18 02:17:19;;;;;;;1.63;1.37;;;22.40;54.70;;;;;;5014153;28;20234;-70
2024/03/18 02:19:45;;;;;;;1.60;1.40;;;22.40;54.80;;;;;;5014116;28;20430;-70
2024/03/18 02:22:11;;;;;;;1.70;1.37;;;22.40;54.70;;;;;;5014143;28;20421;-70
2024/03/18 02:24:36;;;;;;;2.03;1.50;;;22.40;54.80;;;;;;5014037;28;20200;-70
2024/03/18 02:27:11;;;;;;;2.33;1.50;;;22.40;54.80;;;;;;5013412;28;20635;-70
2024/03/18 02:29:37;;;;;;;2.60;1.57;;;22.40;54.80;;;;;;5013681;28;20202;-70
2024/03/18 02:32:03;;;;;;;3.37;1.50;;;22.40;54.80;;;;;;5013899;28;20444;-70
2024/03/18 02:34:30;;;;;;;2.20;1.40;;;22.40;54.80;;;;;;5031676;28;20995;-70
2024/03/18 02:36:56;;;;;;;1.83;1.40;;;22.40;54.80;;;;;;5031542;28;20421;-69
2024/03/18 02:39:22;;;;;;;1.93;1.73;;;22.40;54.80;;;;;;5031569;28;20491;-70
2024/03/18 02:41:49;;;;;;;1.70;1.60;;;22.40;54.80;;;;;;5013784;28;20493;-69
2024/03/18 02:44:16;;;;;;;2.40;1.33;;;22.40;54.80;;;;;;5031592;28;20243;-69
2024/03/18 02:46:42;;;;;;;1.77;1.43;;;22.40;54.80;;;;;;5031441;28;20442;-70
2024/03/18 02:49:07;;;;;;;2.17;1.40;;;22.40;54.80;;;;;;5013506;28;20466;-70
2024/03/18 02:51:33;;;;;;;1.57;1.40;;;22.40;54.80;;;;;;5031324;28;20944;-70
2024/03/18 02:53:59;;;;;;;1.50;1.20;;;22.40;54.80;;;;;;5013393;28;20226;-70
2024/03/18 02:56:25;;;;;;;1.50;1.40;;;22.40;54.80;;;;;;5013311;28;20822;-70
2024/03/18 02:58:52;;;;;;;1.90;1.43;;;22.40;54.80;;;;;;4997130;28;20194;-70
2024/03/18 03:01:17;;;;;;;1.90;1.60;;;22.40;54.80;;;;;;5013677;28;20450;-70
2024/03/18 03:03:43;;;;;;;1.90;1.67;;;22.40;54.80;;;;;;5013158;28;20450;-70
2024/03/18 03:06:08;;;;;;;3.37;1.33;;;22.30;54.80;;;;;;5013240;28;20241;-70
2024/03/18 03:08:34;;;;;;;1.40;1.30;;;22.30;54.80;;;;;;5030898;28;20199;-70
2024/03/18 03:11:06;;;;;;;1.63;1.53;;;22.40;54.80;;;;;;4996779;28;20176;-70
2024/03/18 03:13:33;;;;;;;1.83;1.40;;;22.40;55.40;;;;;;5013071;28;20629;-70
2024/03/18 03:15:59;;;;;;;1.43;1.17;;;22.30;54.80;;;;;;5030895;28;20936;-70
2024/03/18 03:18:25;;;;;;;2.30;1.50;;;22.30;54.80;;;;;;5012950;28;20415;-70
2024/03/18 03:20:54;;;;;;;2.03;1.67;;;22.30;54.80;;;;;;5012938;28;20521;-71
2024/03/18 03:23:20;;;;;;;1.50;1.20;;;22.30;54.80;;;;;;5012874;28;20667;-71
2024/03/18 03:25:48;;;;;;;1.80;1.20;;;22.30;54.80;;;;;;5013128;28;20461;-70
2024/03/18 03:28:14;;;;;;;1.50;1.37;;;22.30;54.80;;;;;;5030785;28;20230;-69
2024/03/18 03:30:40;;;;;;;1.23;1.13;;;22.30;54.80;;;;;;5030683;28;20468;-69
2024/03/18 03:33:06;;;;;;;1.57;1.03;;;22.30;54.80;;;;;;5030619;28;20889;-70
2024/03/18 03:35:31;;;;;;;2.80;1.10;;;22.30;54.80;;;;;;5030458;28;20200;-70
2024/03/18 03:37:57;;;;;;;1.73;1.30;;;22.30;54.80;;;;;;5012672;28;20228;-70
2024/03/18 03:40:23;;;;;;;2.17;1.30;;;22.30;54.80;;;;;;5012650;28;20222;-70
2024/03/18 03:42:48;;;;;;;1.60;1.20;;;22.30;54.80;;;;;;5012653;28;21083;-70
2024/03/18 03:45:14;;;;;;;1.40;1.30;;;22.30;54.80;;;;;;5030259;28;20867;-71
2024/03/18 03:47:40;;;;;;;1.50;1.10;;;22.30;54.80;;;;;;5012482;28;20298;-70
2024/03/18 03:50:08;;;;;;;1.50;1.20;;;22.30;54.80;;;;;;5012508;28;20183;-71
2024/03/18 03:52:34;;;;;;;2.03;1.40;;;22.30;54.80;;;;;;5030214;28;20627;-70
2024/03/18 03:54:59;;;;;;;2.40;1.10;;;22.30;54.80;;;;;;5030243;28;20447;-70
2024/03/18 03:57:25;;;;;;;1.50;1.27;;;22.30;54.90;;;;;;5012351;28;20177;-70
2024/03/18 03:59:51;;;;;;;1.90;1.63;;;22.30;54.90;;;;;;5012815;28;20538;-71
2024/03/18 04:02:17;;;;;;;1.37;1.10;;;22.30;54.80;;;;;;5012461;28;20178;-70
2024/03/18 04:04:43;;;;;;;1.50;1.20;;;22.30;54.80;;;;;;5012237;28;20192;-70
2024/03/18 04:07:08;;;;;;;1.90;1.40;;;22.30;54.90;;;;;;5030083;28;20921;-70
2024/03/18 04:09:34;;;;;;;1.60;1.40;;;22.30;54.80;;;;;;5012190;28;20293;-70
2024/03/18 04:12:00;;;;;;;2.23;1.40;;;22.30;54.90;;;;;;5030309;28;20180;-70
2024/03/18 04:14:25;;;;;;;2.00;1.47;;;22.30;54.90;;;;;;5012184;28;20201;-70
2024/03/18 04:16:51;;;;;;;2.80;1.40;;;22.30;54.90;;;;;;5030070;28;20178;-69
2024/03/18 04:19:16;;;;;;;1.87;1.43;;;22.30;54.80;;;;;;5012189;28;20183;-70
2024/03/18 04:21:42;;;;;;;1.90;1.40;;;22.30;54.90;;;;;;5030052;28;20607;-70
2024/03/18 04:24:08;;;;;;;1.90;1.30;;;22.30;54.90;;;;;;5029926;28;20216;-70
2024/03/18 04:26:35;;;;;;;1.43;1.17;;;22.30;54.90;;;;;;5029927;28;20635;-70
2024/03/18 04:29:00;;;;;;;2.13;1.20;;;22.30;54.90;;;;;;5029835;28;20508;-70
2024/03/18 04:31:26;;;;;;;1.83;1.20;;;22.30;54.90;;;;;;5012095;28;20410;-70
2024/03/18 04:33:52;;;;;;;1.63;1.43;;;22.30;54.90;;;;;;5029784;28;20171;-70
2024/03/18 04:36:17;;;;;;;2.33;1.40;;;22.30;54.90;;;;;;5030259;28;20176;-68
2024/03/18 04:38:43;;;;;;;1.23;1.10;;;22.30;54.90;;;;;;5029873;28;20246;-71
2024/03/18 04:41:13;;;;;;;1.43;1.33;;;22.30;54.90;;;;;;5012079;28;20188;-70
2024/03/18 04:43:39;;;;;;;1.73;1.23;;;22.30;54.90;;;;;;5012471;28;20631;-70
2024/03/18 04:46:08;;;;;;;1.70;1.20;;;22.30;54.90;;;;;;5029748;28;20516;-70
2024/03/18 04:48:33;;;;;;;1.70;1.37;;;22.30;54.90;;;;;;5012066;28;20214;-70
2024/03/18 04:50:59;;;;;;;2.53;1.70;;;22.30;54.90;;;;;;5012946;28;20418;-71
2024/03/18 04:53:25;;;;;;;1.73;1.20;;;22.30;54.90;;;;;;5015726;28;20180;-70
2024/03/18 04:55:50;;;;;;;1.43;1.10;;;22.30;54.90;;;;;;5033355;28;20776;-71
2024/03/18 04:58:16;;;;;;;1.50;1.27;;;22.30;54.90;;;;;;5014615;28;20187;-70
2024/03/18 05:00:41;;;;;;;2.17;1.53;;;22.30;54.90;;;;;;5033245;28;20548;-70
2024/03/18 05:03:07;;;;;;;1.77;1.33;;;22.30;54.90;;;;;;5032739;28;20187;-71
2024/03/18 05:05:33;;;;;;;1.70;1.27;;;22.30;54.80;;;;;;5014857;28;20211;-70
2024/03/18 05:07:59;;;;;;;1.93;1.60;;;22.30;54.90;;;;;;5032997;28;20677;-70
2024/03/18 05:10:27;;;;;;;1.43;1.20;;;22.30;54.90;;;;;;5033270;28;20634;-71
2024/03/18 05:12:53;;;;;;;1.63;1.40;;;22.30;54.80;;;;;;5033720;28;20417;-71
2024/03/18 05:15:19;;;;;;;1.53;1.43;;;22.30;54.80;;;;;;4998974;28;20793;-70
2024/03/18 05:17:45;;;;;;;1.50;1.40;;;22.40;54.90;;;;;;5033123;28;20426;-70
2024/03/18 05:20:11;;;;;;;1.67;1.10;;;22.40;54.90;;;;;;5033296;28;20176;-70
2024/03/18 05:22:37;;;;;;;2.23;1.30;;;22.40;54.90;;;;;;5014999;28;20415;-70
2024/03/18 05:25:06;;;;;;;1.57;1.00;;;22.40;54.90;;;;;;5033231;28;20966;-70
2024/03/18 05:27:32;;;;;;;1.30;1.20;;;22.40;54.80;;;;;;5015165;28;20795;-70
2024/03/18 05:29:59;;;;;;;2.00;1.20;;;22.40;54.80;;;;;;5014988;28;20421;-70
2024/03/18 05:32:25;;;;;;;1.70;1.20;;;22.40;54.80;;;;;;5033049;28;20496;-70
2024/03/18 05:34:50;;;;;;;1.50;1.20;;;22.40;54.80;;;;;;5032757;28;21032;-69
2024/03/18 05:37:17;;;;;;;1.20;1.00;;;22.40;54.80;;;;;;5033290;28;20180;-71
2024/03/18 05:39:42;;;;;;;1.83;1.40;;;22.40;54.80;;;;;;5014652;28;20187;-70
2024/03/18 05:42:08;;;;;;;1.97;1.70;;;22.40;54.80;;;;;;5014916;28;20539;-69
2024/03/18 05:44:34;;;;;;;3.00;1.80;;;22.40;54.70;;;;;;5032322;28;20241;-70
2024/03/18 05:47:00;;;;;;;2.23;1.97;;;22.40;54.70;;;;;;5014823;28;20207;-70
2024/03/18 05:49:26;;;;;;;5.17;3.00;;;22.40;54.60;;;;;;5014602;28;20203;-70
2024/03/18 05:51:52;;;;;;;3.97;2.60;;;22.40;54.70;;;;;;5032406;28;20500;-70
2024/03/18 05:54:18;;;;;;;5.87;2.80;;;22.40;54.70;;;;;;5032598;28;20461;-70
2024/03/18 05:56:45;;;;;;;4.63;3.40;;;22.40;54.70;;;;;;5032612;28;20576;-70
2024/03/18 05:59:11;;;;;;;7.10;3.97;;;22.40;54.80;;;;;;5014463;28;20402;-70
2024/03/18 06:01:37;;;;;;;5.40;3.80;;;22.40;54.80;;;;;;5032229;28;20767;-70
2024/03/18 06:04:04;;;;;;;6.40;3.80;;;22.40;54.80;;;;;;5032144;28;20211;-70
2024/03/18 06:06:29;;;;;;;7.63;4.00;;;22.40;54.80;;;;;;4997991;28;20513;-71
2024/03/18 06:08:55;;;;;;;5.30;3.10;;;22.40;54.80;;;;;;5014062;28;21032;-72
2024/03/18 06:11:20;;;;;;;3.90;2.83;;;22.40;54.80;;;;;;5032103;28;20533;-71
2024/03/18 06:13:46;;;;;;;6.63;3.33;;;22.40;54.80;;;;;;5014172;28;20266;-72
2024/03/18 06:16:12;;;;;;;3.70;3.27;;;22.40;54.80;;;;;;5030863;28;20575;-71
2024/03/18 06:18:37;;;;;;;4.77;2.80;;;22.40;54.80;;;;;;5031968;28;20168;-71
2024/03/18 06:21:03;;;;;;;3.60;2.80;;;22.40;54.80;;;;;;5014133;28;20533;-71
2024/03/18 06:23:33;;;;;;;3.40;2.80;;;22.40;54.80;;;;;;5014088;28;20171;-72
2024/03/18 06:25:58;;;;;;;5.13;3.53;;;22.40;54.80;;;;;;5031836;28;20418;-71
2024/03/18 06:28:25;;;;;;;5.40;3.63;;;22.40;54.80;;;;;;5013872;28;20461;-71
2024/03/18 06:30:52;;;;;;;6.63;3.33;;;22.40;54.80;;;;;;5013898;28;20179;-71
2024/03/18 06:33:18;;;;;;;6.37;3.37;;;22.50;54.90;;;;;;5031974;28;20406;-71
2024/03/18 06:35:45;;;;;;;5.00;2.93;;;22.50;54.90;;;;;;5014019;28;20945;-71
2024/03/18 06:38:11;;;;;;;6.10;3.10;;;22.50;54.90;;;;;;5031607;28;20407;-70
2024/03/18 06:40:37;;;;;;;6.20;3.37;;;22.50;55.00;;;;;;5013644;28;20418;-71
2024/03/18 06:43:03;;;;;;;4.47;3.10;;;22.50;55.00;;;;;;5031652;28;20909;-71
2024/03/18 06:45:28;;;;;;;5.00;3.77;;;22.50;54.90;;;;;;5030632;28;20214;-71
2024/03/18 06:47:54;;;;;;;4.17;3.37;;;22.50;54.90;;;;;;5012539;28;20207;-71
2024/03/18 06:50:21;;;;;;;6.30;3.93;;;22.50;54.90;;;;;;5012624;28;20186;-71
2024/03/18 06:52:46;;;;;;;3.73;3.20;;;22.50;54.80;;;;;;5030403;28;20183;-71
2024/03/18 06:55:12;;;;;;;6.77;3.70;;;22.50;54.80;;;;;;5012488;28;20430;-71
2024/03/18 06:57:38;;;;;;;4.90;2.87;;;22.50;54.90;;;;;;5030391;28;20178;-70
2024/03/18 07:00:06;;;;;;;5.70;3.73;;;22.50;54.90;;;;;;5030340;28;20214;-71
2024/03/18 07:02:32;;;;;;;4.00;3.60;;;22.50;54.90;;;;;;5012522;28;20263;-71
2024/03/18 07:04:57;;;;;;;5.93;3.60;;;22.50;54.80;;;;;;5030123;28;20513;-71
2024/03/18 07:07:23;;;;;;;5.13;3.13;;;22.50;54.80;;;;;;5030129;28;20194;-72
2024/03/18 07:09:48;;;;;;;8.13;3.17;;;22.50;54.90;;;;;;5030210;28;20168;-72
2024/03/18 07:12:15;;;;;;;6.30;3.53;;;22.50;54.80;;;;;;5012208;28;20283;-70
2024/03/18 07:14:41;;;;;;;6.73;3.40;;;22.50;54.90;;;;;;5029408;28;20226;-68
2024/03/18 07:17:07;;;;;;;4.67;3.40;;;22.50;54.90;;;;;;5012405;28;20509;-69
2024/03/18 07:19:33;;;;;;;5.67;3.27;;;22.60;55.00;;;;;;5012159;28;20516;-70
2024/03/18 07:22:00;;;;;;;6.47;3.10;;;22.50;55.00;;;;;;5012074;28;20525;-70
2024/03/18 07:24:27;;;;;;;5.37;3.03;;;22.60;55.10;;;;;;4995881;28;20191;-69
2024/03/18 07:26:52;;;;;;;3.80;2.83;;;22.60;55.00;;;;;;5011941;28;20407;-70
2024/03/18 07:29:19;;;;;;;6.77;3.80;;;22.60;55.00;;;;;;5011902;28;20524;-69
2024/03/18 07:31:45;;;;;;;4.50;3.30;;;22.60;55.00;;;;;;4995730;28;20222;-70
2024/03/18 07:34:12;;;;;;;7.27;3.50;;;22.60;55.60;;;;;;5011800;28;20860;-70
2024/03/18 07:36:42;;;;;;;5.60;3.00;;;22.60;55.00;;;;;;5011796;28;20448;-70
2024/03/18 07:39:07;;;;;;;5.87;3.40;;;22.60;55.00;;;;;;5011692;28;20791;-70
2024/03/18 07:41:35;;;;;;;3.40;3.00;;;22.60;55.00;;;;;;5029790;28;20418;-70
2024/03/18 07:44:01;;;;;;;3.20;2.90;;;22.60;55.40;;;;;;4985523;28;1263048;-71
2024/03/18 07:46:26;;;;;;;5.70;3.23;;;22.60;55.00;;;;;;5030312;28;20401;-70
2024/03/18 07:48:52;;;;;;;3.80;2.83;;;22.60;55.00;;;;;;5030022;28;20195;-70
2024/03/18 07:51:18;;;;;;;4.87;3.80;;;22.60;55.60;;;;;;5012572;28;20178;-70
2024/03/18 07:53:43;;;;;;;6.60;3.37;;;22.60;55.00;;;;;;5012226;28;20195;-70
2024/03/18 07:56:11;;;;;;;3.53;2.77;;;22.60;55.00;;;;;;5030423;28;20176;-70
2024/03/18 07:58:37;;;;;;;4.90;3.17;;;22.60;55.00;;;;;;5012311;28;20547;-70
2024/03/18 08:01:02;;;;;;;3.87;2.80;;;22.60;55.00;;;;;;5030232;28;20884;-71
2024/03/18 08:03:28;;;;;;;4.80;2.93;;;22.60;55.00;;;;;;5029997;28;20190;-71
2024/03/18 08:05:53;;;;;;;4.97;3.17;;;22.60;55.00;;;;;;5012181;28;20206;-71
2024/03/18 08:08:19;;;;;;;6.80;3.07;;;22.60;55.00;;;;;;5029901;28;20199;-69
2024/03/18 08:10:45;;;;;;;6.23;3.03;;;22.60;55.00;;;;;;5012137;28;20172;-69
2024/03/18 08:13:12;;;;;;;3.10;2.57;;;22.60;55.00;;;;;;5030205;28;20174;-71
2024/03/18 08:15:38;;;;;;;5.93;2.90;;;22.60;55.00;;;;;;5012099;28;20434;-70
2024/03/18 08:18:05;;;;;;;3.50;3.00;;;22.70;55.10;;;;;;4995729;28;20414;-70
2024/03/18 08:20:31;;;;;;;2.80;2.43;;;22.70;55.10;;;;;;5029825;28;20180;-71
2024/03/18 08:22:57;;;;;;;4.03;2.50;;;22.70;55.00;;;;;;5030070;28;20489;-69
2024/03/18 08:25:22;;;;;;;3.93;2.97;;;22.70;55.10;;;;;;5029619;28;20219;-70
2024/03/18 08:27:48;;;;;;;5.80;3.20;;;22.60;55.00;;;;;;5016268;28;20199;-70
2024/03/18 08:30:14;;;;;;;4.00;2.50;;;22.70;55.00;;;;;;5015973;28;20160;-70
2024/03/18 08:32:40;;;;;;;4.53;3.27;;;22.70;55.00;;;;;;5015924;28;20172;-70
2024/03/18 08:35:07;;;;;;;4.70;3.00;;;22.70;55.00;;;;;;5015717;28;20231;-71
2024/03/18 08:37:33;;;;;;;4.70;3.13;;;22.70;55.00;;;;;;5016066;28;20406;-70
2024/03/18 08:39:59;;;;;;;3.00;2.70;;;22.70;55.00;;;;;;5015785;28;20448;-70
2024/03/18 08:42:26;;;;;;;4.07;3.10;;;22.70;55.00;;;;;;5015639;28;20457;-71
2024/03/18 08:44:52;;;;;;;3.60;2.80;;;22.70;55.00;;;;;;5015508;28;20829;-71
2024/03/18 08:47:20;;;;;;;3.23;2.40;;;22.70;55.00;;;;;;5015689;28;20422;-70
2024/03/18 08:49:47;;;;;;;4.53;2.80;;;22.70;55.00;;;;;;5015539;28;20245;-70
2024/03/18 08:52:14;;;;;;;4.40;2.73;;;22.70;55.00;;;;;;5015602;28;20426;-70
2024/03/18 08:54:40;;;;;;;3.67;2.70;;;22.70;55.00;;;;;;5015463;28;20433;-70
2024/03/18 08:57:06;;;;;;;5.07;2.80;;;22.70;55.00;;;;;;5033378;28;20884;-71
2024/03/18 08:59:32;;;;;;;3.73;2.63;;;22.70;55.00;;;;;;5015497;28;20529;-70
2024/03/18 09:01:58;;;;;;;4.10;2.47;;;22.70;55.00;;;;;;4998892;28;20434;-71
2024/03/18 09:04:23;;;;;;;2.73;2.37;;;22.70;55.00;;;;;;5015324;28;20206;-70
2024/03/18 09:06:53;;;;;;;4.03;3.63;;;22.70;55.00;;;;;;5015335;28;20657;-71
2024/03/18 09:09:19;;;;;;;4.37;2.70;;;22.70;55.00;;;;;;5015265;28;20284;-70
2024/03/18 09:11:46;;;;;;;2.87;2.30;;;22.70;55.00;;;;;;5015362;28;20768;-70
2024/03/18 09:14:11;;;;;;;3.40;2.90;;;22.70;55.00;;;;;;5015142;28;20446;-70
2024/03/18 09:16:37;;;;;;;3.17;2.87;;;22.70;55.00;;;;;;5033070;28;20790;-70
2024/03/18 09:19:02;;;;;;;4.33;2.60;;;22.70;55.00;;;;;;5015497;28;20192;-70
2024/03/18 09:21:28;;;;;;;3.87;2.90;;;22.70;55.00;;;;;;5032923;28;20645;-70
2024/03/18 09:23:54;;;;;;;2.70;2.33;;;22.70;55.00;;;;;;5033092;28;20180;-70
2024/03/18 09:26:20;;;;;;;5.43;3.00;;;22.70;55.00;;;;;;5015006;28;20172;-70
2024/03/18 09:28:46;;;;;;;4.00;3.40;;;22.70;55.00;;;;;;5014891;28;20223;-69
2024/03/18 09:31:12;;;;;;;4.93;2.50;;;22.70;55.00;;;;;;4998587;28;20533;-70
2024/03/18 09:33:37;;;;;;;3.73;3.27;;;22.80;55.10;;;;;;5015017;28;20626;-71
2024/03/18 09:36:03;;;;;;;2.63;2.30;;;22.80;55.00;;;;;;5014791;28;20235;-71
2024/03/18 09:38:30;;;;;;;4.03;2.60;;;22.80;55.00;;;;;;5014379;28;20203;-71
2024/03/18 09:41:06;;;;;;;5.07;2.17;;;22.80;55.10;;;;;;5015036;28;20410;-70
2024/03/18 09:43:35;;;;;;;3.20;2.30;;;22.80;55.00;;;;;;5032557;28;20410;-70
2024/03/18 09:46:05;;;;;;;3.63;2.73;;;22.80;55.00;;;;;;5032818;28;20466;-69
2024/03/18 09:48:32;;;;;;;3.33;2.27;;;22.80;55.00;;;;;;5032610;28;20473;-71
2024/03/18 09:50:59;;;;;;;3.37;2.50;;;22.80;55.00;;;;;;5014653;28;20418;-70
2024/03/18 09:53:27;;;;;;;2.13;1.73;;;22.80;55.00;;;;;;5032349;28;20492;-71
2024/03/18 09:55:53;;;;;;;3.93;2.57;;;22.80;55.00;;;;;;4998079;28;20485;-71
2024/03/18 09:58:19;;;;;;;3.87;2.17;;;22.80;55.10;;;;;;5014511;28;20925;-70
2024/03/18 10:00:45;;;;;;;3.37;2.40;;;22.80;55.00;;;;;;5014403;28;20492;-71
2024/03/18 10:03:19;;;;;;;3.30;2.00;;;22.80;55.00;;;;;;5014405;28;20229;-70
2024/03/18 10:05:48;;;;;;;4.87;2.50;;;22.80;55.00;;;;;;5032296;28;20957;-70
2024/03/18 10:08:15;;;;;;;3.17;2.50;;;22.80;55.00;;;;;;4997935;28;20465;-70
2024/03/18 10:10:41;;;;;;;3.47;2.07;;;22.80;55.00;;;;;;5031953;28;20417;-71
2024/03/18 10:13:08;;;;;;;2.93;2.40;;;22.80;55.00;;;;;;5014177;28;20423;-71
2024/03/18 10:15:34;;;;;;;2.93;2.43;;;22.80;55.00;;;;;;5014060;28;20449;-70
2024/03/18 10:18:00;;;;;;;2.73;2.20;;;22.80;55.00;;;;;;5014113;28;20969;-71
2024/03/18 10:20:26;;;;;;;3.13;2.27;;;22.80;55.00;;;;;;5031905;28;20179;-69
2024/03/18 10:22:52;;;;;;;3.90;3.00;;;22.80;55.00;;;;;;5031766;28;20426;-71
2024/03/18 10:25:24;;;;;;;2.50;2.30;;;22.80;55.00;;;;;;5031922;28;20207;-70
2024/03/18 10:27:53;;;;;;;3.20;2.20;;;22.80;55.00;;;;;;5031676;28;20407;-70
2024/03/18 10:30:19;;;;;;;3.17;2.40;;;22.80;55.00;;;;;;5013815;28;20418;-71
2024/03/18 10:32:46;;;;;;;4.03;2.40;;;22.80;55.00;;;;;;5031617;28;20504;-70
2024/03/18 10:35:31;;;;;;;3.20;2.77;;;22.80;55.00;;;;;;5013679;28;20640;-71
2024/03/18 10:37:59;;;;;;;3.73;1.97;;;22.80;55.00;;;;;;5031593;28;20399;-71
2024/03/18 10:40:38;;;;;;;3.70;2.40;;;22.80;55.00;;;;;;5031439;28;20517;-71
2024/03/18 10:43:09;;;;;;;3.83;2.00;;;22.80;55.00;;;;;;5013598;28;20436;-71
2024/03/18 10:45:42;;;;;;;3.00;2.30;;;22.80;55.00;;;;;;5031349;28;21012;-71
2024/03/18 10:48:13;;;;;;;2.23;1.97;;;22.80;55.00;;;;;;5012984;28;20466;-71
2024/03/18 10:50:39;;;;;;;3.17;2.30;;;22.80;55.00;;;;;;5031551;28;20810;-71
2024/03/18 10:53:31;;;;;;;3.37;2.00;;;22.80;55.00;;;;;;5013374;28;20497;-70
2024/03/18 10:55:58;;;;;;;3.30;2.47;;;22.80;55.00;;;;;;5031179;28;20457;-71
2024/03/18 10:58:27;;;;;;;3.73;2.00;;;22.80;55.00;;;;;;5031193;28;20905;-71
2024/03/18 11:00:53;;;;;;;3.40;2.43;;;22.80;55.00;;;;;;5013244;28;20422;-72
2024/03/18 11:03:21;;;;;;;3.63;2.40;;;22.70;55.00;;;;;;4996993;28;20424;-71
2024/03/18 11:05:58;;;;;;;3.40;2.40;;;22.80;55.00;;;;;;5013062;28;20450;-71
2024/03/18 11:08:25;;;;;;;2.23;2.03;;;22.80;55.00;;;;;;4997068;28;20519;-70
2024/03/18 11:10:58;;;;;;;3.07;2.30;;;22.80;55.00;;;;;;5031029;28;20422;-71
2024/03/18 11:13:33;;;;;;;3.40;2.40;;;22.80;55.00;;;;;;5030921;28;20433;-71
2024/03/18 11:16:06;;;;;;;2.57;2.03;;;22.80;55.00;;;;;;5013100;28;20951;-71
2024/03/18 11:18:34;;;;;;;3.10;2.37;;;22.80;55.00;;;;;;5012991;28;20411;-71
2024/03/18 11:21:02;;;;;;;2.90;2.60;;;22.80;55.00;;;;;;5031036;28;20460;-71
2024/03/18 11:23:32;;;;;;;2.97;2.33;;;22.80;55.00;;;;;;5031057;28;20418;-71
2024/03/18 11:26:07;;;;;;;3.77;2.10;;;22.80;55.00;;;;;;5030867;28;20445;-71
2024/03/18 11:28:36;;;;;;;2.33;1.60;;;22.80;55.00;;;;;;5013566;28;20846;-71
2024/03/18 11:31:21;;;;;;;3.70;2.27;;;22.80;55.00;;;;;;5012777;28;20939;-71
2024/03/18 11:33:47;;;;;;;2.30;1.90;;;22.80;55.00;;;;;;5012907;28;20394;-71
2024/03/18 11:36:17;;;;;;;3.30;1.97;;;22.80;55.00;;;;;;5012714;28;20426;-71
2024/03/18 11:38:42;;;;;;;2.50;1.97;;;22.80;55.00;;;;;;5030502;28;20419;-72
2024/03/18 11:41:08;;;;;;;3.50;2.33;;;22.80;55.00;;;;;;5030469;28;20898;-71
2024/03/18 11:43:36;;;;;;;4.23;2.63;;;22.80;55.00;;;;;;4996287;28;20191;-71
2024/03/18 11:46:05;;;;;;;2.77;1.90;;;22.80;55.00;;;;;;5012369;28;20227;-71
2024/03/18 11:48:31;;;;;;;4.13;2.57;;;22.80;55.00;;;;;;5030176;28;20964;-70
2024/03/18 11:50:57;;;;;;;3.00;2.20;;;22.80;55.00;;;;;;5012440;28;20891;-69
2024/03/18 11:53:24;;;;;;;2.30;2.03;;;22.80;55.00;;;;;;5012274;28;20500;-71
2024/03/18 11:55:53;;;;;;;2.23;2.03;;;22.80;55.00;;;;;;5030331;28;20936;-71
2024/03/18 11:58:19;;;;;;;1.80;1.60;;;22.80;55.00;;;;;;5012322;28;20426;-71
2024/03/18 12:00:47;;;;;;;3.03;2.27;;;22.80;55.00;;;;;;5029974;28;20501;-71
2024/03/18 12:03:14;;;;;;;3.87;2.23;;;22.80;55.00;;;;;;5030326;28;20411;-69
2024/03/18 12:05:43;;;;;;;2.60;2.00;;;22.80;54.90;;;;;;5012182;28;20446;-72
2024/03/18 12:08:22;;;;;;;2.83;2.30;;;22.80;55.00;;;;;;5030226;28;20508;-72
2024/03/18 12:10:53;;;;;;;2.70;2.07;;;22.80;55.00;;;;;;5012210;28;20414;-71
2024/03/18 12:13:23;;;;;;;3.87;2.07;;;22.80;55.00;;;;;;5012275;28;20406;-71
2024/03/18 12:15:50;;;;;;;3.37;2.17;;;22.70;54.90;;;;;;4995853;28;20438;-71
2024/03/18 12:18:16;;;;;;;2.57;2.00;;;22.80;55.00;;;;;;5012257;28;20433;-71
2024/03/18 12:20:42;;;;;;;2.60;1.73;;;22.70;54.90;;;;;;5012133;28;20886;-71
2024/03/18 12:23:16;;;;;;;2.60;2.33;;;22.70;54.90;;;;;;5012042;28;20651;-71
2024/03/18 12:28:44;;;;;;;4.30;1.80;;;22.70;54.90;;;;;;5015060;28;20565;-71
2024/03/18 12:31:13;;;;;;;1.93;1.63;;;22.70;54.90;;;;;;5012001;28;20434;-71
2024/03/18 12:33:42;;;;;;;3.03;2.07;;;22.70;55.00;;;;;;5011943;28;20482;-71
2024/03/18 12:36:16;;;;;;;2.40;1.90;;;22.70;55.00;;;;;;5011846;28;20456;-71
2024/03/18 12:38:44;;;;;;;2.77;1.97;;;22.70;55.00;;;;;;5012428;28;20445;-71
2024/03/18 12:41:15;;;;;;;4.20;2.60;;;22.70;55.00;;;;;;5012034;28;20457;-71
2024/03/18 12:43:42;;;;;;;2.50;2.13;;;22.70;55.00;;;;;;4992286;28;20423;-70
2024/03/18 12:46:09;;;;;;;3.20;2.53;;;22.80;55.00;;;;;;5010153;28;20497;-70
2024/03/18 12:48:35;;;;;;;3.93;2.30;;;22.70;55.00;;;;;;4992008;28;20465;-71